CYTZ/YTZ METAR and TAF weather

Enter ICAO airport designator
Station Type Date Time Source
CYTZ METAR 2019/03/26 12:00 UTC NOAA

CYTZ 261200Z AUTO 35009KT 330V050 9SM CLR M01/M13 A3040 RMK SLP299


Station Type Date Time Source
CYTZ Decoded METAR 2019/03/26 12:00 UTC NOAA

Toronto Island Airport Automated Reporting Station, Canada (CYTZ) 43-38N 079-24W
Mar 26, 2019 - 08:00 AM EDT / 2019.03.26 1200 UTC
Wind: from the N (350 degrees) at 10 MPH (9 KT) (direction variable):0
Visibility: 9 mile(s):0
Sky conditions: clear
Temperature: 30 F (-1 C)
Windchill: 21 F (-6 C):1
Dew Point: 8 F (-13 C)
Relative Humidity: 39%
Pressure (altimeter): 30.4 in. Hg (1029 hPa)
ob: CYTZ 261200Z AUTO 35009KT 330V050 9SM CLR M01/M13 A3040 RMK SLP299
cycle: 12

Station Type Date Time Source
CYTZ TAF 2019/03/26 08:50 UTC NOAA

TAF CYTZ 260739Z 2608/2708 32005KT P6SM SKC
BECMG 2610/2612 36007KT
BECMG 2614/2616 03007KT
FM261800 15005KT P6SM SKC
BECMG 2622/2624 VRB03KT
RMK FCST BASED ON AUTO OBS. NXT FCST BY 261400Z

Example: see airport list